Time;durP1;ratioP1;P1;durP2;ratioP2;P2;SDS_P1;SDS_P2;PMS_P1;PMS_P2;Temp;Humidity;BMP_temperature;BMP_pressure;BME280_temperature;BME280_humidity;BME280_pressure;Samples;Min_cycle;Max_cycle;Signal;HPM_P1;HPM_P2
2023/08/08 00:01:30;;;;;;;4.22;3.45;;;15.40;99.90;;;;;;6185337;23;20000;-80
2023/08/08 00:03:56;;;;;;;4.10;3.50;;;15.40;99.90;;;;;;6185756;23;20453;-80
2023/08/08 00:06:21;;;;;;;4.47;3.10;;;15.30;99.90;;;;;;6212210;23;20148;-81
2023/08/08 00:08:47;;;;;;;4.32;3.55;;;15.30;99.90;;;;;;6212558;23;20027;-81
2023/08/08 00:11:12;;;;;;;7.28;4.28;;;15.30;99.90;;;;;;6211932;23;20360;-82
2023/08/08 00:13:38;;;;;;;5.97;4.35;;;15.30;99.90;;;;;;6212091;23;20436;-81
2023/08/08 00:16:04;;;;;;;5.72;3.83;;;15.30;99.90;;;;;;6211551;23;20000;-80
2023/08/08 00:18:30;;;;;;;7.78;3.88;;;15.30;99.90;;;;;;6212103;23;20446;-80
2023/08/08 00:20:56;;;;;;;8.75;4.45;;;15.40;99.90;;;;;;6212332;23;19997;-80
2023/08/08 00:23:22;;;;;;;5.78;4.32;;;15.40;99.90;;;;;;6185164;23;20005;-80
2023/08/08 00:25:49;;;;;;;7.00;4.40;;;15.40;99.90;;;;;;6212302;23;20000;-80
2023/08/08 00:28:16;;;;;;;7.90;4.22;;;15.40;99.90;;;;;;6211622;23;20000;-80
2023/08/08 00:30:41;;;;;;;7.55;4.00;;;15.40;99.90;;;;;;6211870;23;20005;-81
2023/08/08 00:33:07;;;;;;;5.57;4.70;;;15.50;99.90;;;;;;6211867;23;20031;-80
2023/08/08 00:35:32;;;;;;;7.65;4.97;;;15.40;99.90;;;;;;6212122;23;20004;-80
2023/08/08 00:37:58;;;;;;;8.90;4.57;;;15.50;99.90;;;;;;6211849;23;20055;-80
2023/08/08 00:40:24;;;;;;;8.70;4.18;;;15.50;99.90;;;;;;6211664;23;20010;-80
2023/08/08 00:42:49;;;;;;;5.70;4.40;;;15.50;99.90;;;;;;6185746;23;20071;-80
2023/08/08 00:45:15;;;;;;;7.25;4.55;;;15.50;99.90;;;;;;6211410;23;20015;-81
2023/08/08 00:47:41;;;;;;;7.13;4.50;;;15.60;99.90;;;;;;6212040;23;19996;-81
2023/08/08 00:50:08;;;;;;;7.35;3.95;;;15.60;99.90;;;;;;6211658;23;20000;-80
2023/08/08 00:52:35;;;;;;;5.93;5.22;;;15.60;99.90;;;;;;6211801;23;20009;-80
2023/08/08 00:55:01;;;;;;;7.68;4.50;;;15.60;99.90;;;;;;6211801;23;20015;-80
2023/08/08 00:57:27;;;;;;;5.97;4.88;;;15.60;99.90;;;;;;6212008;23;19996;-80
2023/08/08 00:59:53;;;;;;;8.00;4.13;;;15.60;99.90;;;;;;6211863;23;20353;-81
2023/08/08 01:02:19;;;;;;;7.93;5.78;;;15.70;99.90;;;;;;6184831;23;20652;-80
2023/08/08 01:04:45;;;;;;;4.28;3.88;;;15.70;99.90;;;;;;6185665;23;20080;-80
2023/08/08 01:07:10;;;;;;;7.70;4.15;;;15.70;99.90;;;;;;6211440;23;20067;-80
2023/08/08 01:09:48;;;;;;;7.72;4.13;;;15.70;99.90;;;;;;6211864;23;20035;-80
2023/08/08 01:12:15;;;;;;;6.47;4.68;;;15.80;99.90;;;;;;6185031;23;20032;-80
2023/08/08 01:14:43;;;;;;;6.05;3.90;;;15.80;99.90;;;;;;6211698;23;20011;-80
2023/08/08 01:17:10;;;;;;;6.00;3.40;;;15.80;99.90;;;;;;6211615;23;20015;-81
2023/08/08 01:19:36;;;;;;;4.88;4.30;;;15.80;99.90;;;;;;6211832;23;20004;-81
2023/08/08 01:22:06;;;;;;;4.07;3.53;;;15.80;99.90;;;;;;6211689;23;20383;-81
2023/08/08 01:24:36;;;;;;;6.20;3.78;;;15.90;99.90;;;;;;6211831;23;20005;-80
2023/08/08 01:27:02;;;;;;;5.70;3.30;;;15.80;99.90;;;;;;6184866;23;20062;-80
2023/08/08 01:29:28;;;;;;;4.70;3.15;;;15.80;99.90;;;;;;6211379;23;20490;-80
2023/08/08 01:31:54;;;;;;;6.47;4.03;;;15.80;99.90;;;;;;6212009;23;20071;-80
2023/08/08 01:34:20;;;;;;;6.30;3.85;;;15.80;99.90;;;;;;6211283;23;20008;-80
2023/08/08 01:36:55;;;;;;;5.72;3.88;;;15.90;99.90;;;;;;6211876;23;20009;-80
2023/08/08 01:39:26;;;;;;;7.13;3.90;;;15.80;99.90;;;;;;6185174;23;20084;-81
2023/08/08 01:41:55;;;;;;;6.05;4.45;;;15.90;99.90;;;;;;6212138;23;20008;-81
2023/08/08 01:44:21;;;;;;;6.13;4.03;;;15.90;99.90;;;;;;6210670;23;20027;-80
2023/08/08 01:46:47;;;;;;;5.07;3.42;;;15.80;99.90;;;;;;6212100;23;20001;-81
2023/08/08 01:49:13;;;;;;;8.07;3.95;;;15.80;99.90;;;;;;6212541;23;20304;-80
2023/08/08 01:51:38;;;;;;;8.07;4.00;;;15.80;99.90;;;;;;6213681;23;20004;-80
2023/08/08 01:54:04;;;;;;;4.63;3.22;;;15.70;99.90;;;;;;6213001;23;20066;-81
2023/08/08 01:56:30;;;;;;;4.65;4.03;;;15.70;99.90;;;;;;6213627;23;20004;-80
2023/08/08 01:58:56;;;;;;;6.65;3.85;;;15.70;99.90;;;;;;6213053;23;20013;-81
2023/08/08 02:01:22;;;;;;;6.95;3.47;;;15.70;99.90;;;;;;6213375;23;20060;-81
2023/08/08 02:03:47;;;;;;;5.65;3.88;;;15.80;99.90;;;;;;6213554;23;20004;-80
2023/08/08 02:06:13;;;;;;;7.10;3.80;;;15.80;99.90;;;;;;6186411;23;20007;-81
2023/08/08 02:08:38;;;;;;;12.13;4.38;;;15.80;99.90;;;;;;6213550;23;20422;-81
2023/08/08 02:11:04;;;;;;;7.22;3.80;;;15.80;99.90;;;;;;6213141;23;20079;-81
2023/08/08 02:13:30;;;;;;;5.25;3.85;;;15.80;99.90;;;;;;6212832;23;20625;-80
2023/08/08 02:15:56;;;;;;;7.15;3.95;;;15.80;99.90;;;;;;6213450;23;20327;-81
2023/08/08 02:18:21;;;;;;;7.93;3.53;;;15.80;99.90;;;;;;6212958;23;20011;-81
2023/08/08 02:20:47;;;;;;;8.10;3.88;;;15.80;99.90;;;;;;6186736;23;20091;-81
2023/08/08 02:23:12;;;;;;;7.45;3.00;;;15.80;99.90;;;;;;6213063;23;20004;-80
2023/08/08 02:25:38;;;;;;;5.47;4.22;;;15.70;99.90;;;;;;6213093;23;20024;-80
2023/08/08 02:28:04;;;;;;;6.95;3.75;;;15.70;99.90;;;;;;6212338;23;19996;-81
2023/08/08 02:30:29;;;;;;;4.47;2.92;;;15.70;99.90;;;;;;6213280;23;20059;-80
2023/08/08 02:32:55;;;;;;;5.78;3.22;;;15.70;99.90;;;;;;6213379;23;20075;-80
2023/08/08 02:35:21;;;;;;;5.18;3.25;;;15.60;99.90;;;;;;6212868;23;20468;-80
2023/08/08 02:37:46;;;;;;;10.00;3.75;;;15.60;99.90;;;;;;6213415;23;20005;-80
2023/08/08 02:40:12;;;;;;;7.13;3.42;;;15.50;99.90;;;;;;6212730;23;20012;-80
2023/08/08 02:42:37;;;;;;;6.30;3.67;;;15.40;99.90;;;;;;6212505;23;20001;-81
2023/08/08 02:45:03;;;;;;;5.68;3.20;;;15.40;99.90;;;;;;6213037;23;20366;-80
2023/08/08 02:47:29;;;;;;;7.40;3.00;;;15.30;99.90;;;;;;6186168;23;20075;-81
2023/08/08 02:49:54;;;;;;;6.30;3.20;;;15.40;99.90;;;;;;6213194;23;20386;-81
2023/08/08 02:52:20;;;;;;;5.20;3.20;;;15.30;99.90;;;;;;6212556;23;20009;-81
2023/08/08 02:54:45;;;;;;;6.15;3.25;;;15.30;99.90;;;;;;6212926;23;20020;-81
2023/08/08 02:57:11;;;;;;;5.60;3.40;;;15.20;99.90;;;;;;6212338;23;20080;-81
2023/08/08 02:59:37;;;;;;;7.13;3.42;;;15.20;99.90;;;;;;6211851;23;20005;-81
2023/08/08 03:02:03;;;;;;;14.07;4.05;;;15.20;99.90;;;;;;6210626;23;20419;-81
2023/08/08 03:04:29;;;;;;;7.65;3.90;;;15.10;99.90;;;;;;6210704;23;20076;-81
2023/08/08 03:06:55;;;;;;;7.40;4.32;;;15.10;99.90;;;;;;6186126;23;20032;-81
2023/08/08 03:09:20;;;;;;;5.72;3.53;;;15.10;99.90;;;;;;6210947;23;20027;-81
2023/08/08 03:11:46;;;;;;;8.48;4.38;;;15.10;99.90;;;;;;6212318;23;20032;-81
2023/08/08 03:14:11;;;;;;;10.38;4.85;;;15.00;99.90;;;;;;6212282;23;20012;-81
2023/08/08 03:16:37;;;;;;;8.10;4.97;;;15.10;99.90;;;;;;6212817;23;20442;-81
2023/08/08 03:19:03;;;;;;;7.85;4.38;;;15.10;99.90;;;;;;6212397;23;20008;-80
2023/08/08 03:21:28;;;;;;;12.65;4.95;;;15.00;99.90;;;;;;6213099;23;20331;-81
2023/08/08 03:23:54;;;;;;;12.32;4.63;;;15.10;99.90;;;;;;6212329;23;20036;-81
2023/08/08 03:26:19;;;;;;;17.77;5.43;;;15.10;99.90;;;;;;6185634;23;20008;-80
2023/08/08 03:28:50;;;;;;;5.00;4.50;;;15.10;99.90;;;;;;6212869;23;20070;-82
2023/08/08 03:31:16;;;;;;;10.73;5.50;;;15.10;99.90;;;;;;6212514;23;20004;-81
2023/08/08 03:33:42;;;;;;;7.38;4.75;;;15.10;99.90;;;;;;6212808;23;19996;-81
2023/08/08 03:36:08;;;;;;;14.52;5.45;;;15.10;99.90;;;;;;6212184;23;20024;-80
2023/08/08 03:38:34;;;;;;;12.35;5.72;;;15.20;99.90;;;;;;6211647;23;20005;-81
2023/08/08 03:40:59;;;;;;;9.77;5.78;;;15.10;99.90;;;;;;6212320;23;20008;-81
2023/08/08 03:43:25;;;;;;;10.07;4.95;;;15.20;99.90;;;;;;6210178;23;20008;-81
2023/08/08 03:45:50;;;;;;;11.38;5.78;;;15.20;99.90;;;;;;6212361;23;20017;-81
2023/08/08 03:48:16;;;;;;;8.25;5.25;;;15.20;99.90;;;;;;6185126;23;20001;-80
2023/08/08 03:50:42;;;;;;;10.00;5.07;;;15.20;99.90;;;;;;6212300;23;20007;-80
2023/08/08 03:53:07;;;;;;;9.85;5.28;;;15.20;99.90;;;;;;6211051;23;20066;-81
2023/08/08 03:55:33;;;;;;;9.68;4.40;;;15.20;99.90;;;;;;6212400;23;20067;-81
2023/08/08 03:57:59;;;;;;;12.13;4.53;;;15.20;99.90;;;;;;6212389;23;20028;-81
2023/08/08 04:00:24;;;;;;;7.95;5.03;;;15.10;99.90;;;;;;6185675;23;20008;-81
2023/08/08 04:02:50;;;;;;;6.78;5.40;;;15.10;99.90;;;;;;6212435;23;20011;-81
2023/08/08 04:05:15;;;;;;;9.55;5.97;;;15.10;99.90;;;;;;6211925;23;20361;-81
2023/08/08 04:07:41;;;;;;;7.20;4.50;;;15.10;99.90;;;;;;6211826;23;20000;-81
2023/08/08 04:10:07;;;;;;;11.27;4.80;;;15.10;99.90;;;;;;6212066;23;20005;-81
2023/08/08 04:12:33;;;;;;;12.43;5.30;;;15.20;99.90;;;;;;6211709;23;20439;-81
2023/08/08 04:14:58;;;;;;;9.80;5.57;;;15.20;99.90;;;;;;6212249;23;20008;-81
2023/08/08 04:17:24;;;;;;;13.93;6.78;;;15.20;99.90;;;;;;6211777;23;20331;-81
2023/08/08 04:19:52;;;;;;;10.25;4.78;;;15.20;99.90;;;;;;6212275;23;20040;-81
2023/08/08 04:22:18;;;;;;;13.15;5.80;;;15.30;99.90;;;;;;6211069;23;20005;-80
2023/08/08 04:24:43;;;;;;;8.52;6.05;;;15.30;99.90;;;;;;6212301;23;20031;-81
2023/08/08 04:27:10;;;;;;;12.63;5.57;;;15.30;99.90;;;;;;6211895;23;20005;-81
2023/08/08 04:29:36;;;;;;;11.25;5.95;;;15.30;99.90;;;;;;6212078;23;20386;-81
2023/08/08 04:32:01;;;;;;;11.23;5.85;;;15.30;99.90;;;;;;6211840;23;20466;-80
2023/08/08 04:34:27;;;;;;;8.32;5.63;;;15.30;99.90;;;;;;6212034;23;19996;-81
2023/08/08 04:36:52;;;;;;;11.40;6.20;;;15.30;99.90;;;;;;6211705;23;20343;-81
2023/08/08 04:39:18;;;;;;;11.50;6.10;;;15.30;99.90;;;;;;6211493;23;20039;-81
2023/08/08 04:41:43;;;;;;;11.30;6.25;;;15.30;99.90;;;;;;6185599;23;20001;-81
2023/08/08 04:44:09;;;;;;;14.65;7.65;;;15.30;99.90;;;;;;6211776;23;20007;-81
2023/08/08 04:46:34;;;;;;;10.15;6.28;;;15.30;99.90;;;;;;6212190;23;20001;-81
2023/08/08 04:49:00;;;;;;;9.88;6.20;;;15.20;99.90;;;;;;6211944;23;20001;-81
2023/08/08 04:51:26;;;;;;;13.10;6.18;;;15.30;99.90;;;;;;6210855;23;20005;-81
2023/08/08 04:53:51;;;;;;;11.85;6.85;;;15.30;99.90;;;;;;6211422;23;20012;-81
2023/08/08 04:56:17;;;;;;;12.05;7.25;;;15.40;99.90;;;;;;6210655;23;20426;-81
2023/08/08 04:58:42;;;;;;;18.15;7.10;;;15.30;99.90;;;;;;6210859;23;20469;-81
2023/08/08 05:01:11;;;;;;;17.60;7.28;;;15.40;99.90;;;;;;6211336;23;20005;-81
2023/08/08 05:03:37;;;;;;;10.95;5.78;;;15.30;99.90;;;;;;6211643;23;20000;-80
2023/08/08 05:06:03;;;;;;;10.80;6.85;;;15.30;99.90;;;;;;6209836;23;20075;-80
2023/08/08 05:08:28;;;;;;;14.55;7.50;;;15.20;99.90;;;;;;6211772;23;19993;-81
2023/08/08 05:10:54;;;;;;;14.35;7.40;;;15.20;99.90;;;;;;6185228;23;20055;-81
2023/08/08 05:13:19;;;;;;;14.75;7.10;;;15.20;99.90;;;;;;6211323;23;20005;-80
2023/08/08 05:15:45;;;;;;;12.77;7.57;;;15.20;99.90;;;;;;6211942;23;20024;-81
2023/08/08 05:18:10;;;;;;;9.55;7.28;;;15.30;99.90;;;;;;6211352;23;20007;-81
2023/08/08 05:20:36;;;;;;;8.75;6.40;;;15.20;99.90;;;;;;6209462;23;20012;-81
2023/08/08 05:23:01;;;;;;;11.10;7.35;;;15.30;99.90;;;;;;6212578;23;20007;-81
2023/08/08 05:25:27;;;;;;;12.65;7.03;;;15.30;99.90;;;;;;6213586;23;20423;-82
2023/08/08 05:27:53;;;;;;;10.05;7.55;;;15.40;99.90;;;;;;6187506;23;20001;-82
2023/08/08 05:30:19;;;;;;;11.77;7.18;;;15.40;99.90;;;;;;6186557;23;20012;-81
2023/08/08 05:32:44;;;;;;;11.75;7.07;;;15.50;99.90;;;;;;6214098;23;20005;-81
2023/08/08 05:35:10;;;;;;;11.95;6.65;;;15.60;99.90;;;;;;6186201;23;20070;-80
2023/08/08 05:37:35;;;;;;;14.93;7.95;;;15.70;99.90;;;;;;6213777;23;20009;-81
2023/08/08 05:40:01;;;;;;;14.55;7.80;;;15.70;99.90;;;;;;6213638;23;20009;-81
2023/08/08 05:42:27;;;;;;;11.05;7.70;;;15.80;99.90;;;;;;6213789;23;20449;-81
2023/08/08 05:44:52;;;;;;;13.40;7.70;;;15.80;99.90;;;;;;6213809;23;20093;-81
2023/08/08 05:47:18;;;;;;;14.05;6.93;;;15.90;99.90;;;;;;6186744;23;20001;-81
2023/08/08 05:49:43;;;;;;;12.35;7.60;;;15.90;99.90;;;;;;6213186;23;20451;-81
2023/08/08 05:52:09;;;;;;;13.45;7.32;;;16.00;99.90;;;;;;6186776;23;20312;-81
2023/08/08 05:54:35;;;;;;;12.80;7.63;;;16.00;99.90;;;;;;6213305;23;20024;-81
2023/08/08 05:57:01;;;;;;;13.57;7.90;;;16.10;99.90;;;;;;6213529;23;20001;-81
2023/08/08 05:59:27;;;;;;;12.32;6.38;;;16.10;99.90;;;;;;6186695;23;20009;-82
2023/08/08 06:01:52;;;;;;;14.73;8.85;;;16.20;99.90;;;;;;6187275;23;20512;-82
2023/08/08 06:04:18;;;;;;;11.98;6.82;;;16.20;99.90;;;;;;6212474;23;20039;-82
2023/08/08 06:06:43;;;;;;;10.95;6.72;;;16.20;99.90;;;;;;6213701;23;20000;-80
2023/08/08 06:09:10;;;;;;;10.38;7.20;;;16.30;99.90;;;;;;6186372;23;20005;-79
2023/08/08 06:11:35;;;;;;;10.18;6.07;;;16.30;99.90;;;;;;6213388;23;20015;-79
2023/08/08 06:14:01;;;;;;;12.13;7.05;;;16.40;99.90;;;;;;6213664;23;20076;-79
2023/08/08 06:16:27;;;;;;;15.25;6.95;;;16.50;99.90;;;;;;6213404;23;20020;-79
2023/08/08 06:18:52;;;;;;;12.80;6.25;;;16.50;99.90;;;;;;6212808;23;20004;-79
2023/08/08 06:21:18;;;;;;;10.88;6.97;;;16.50;99.90;;;;;;6212813;23;20000;-78
2023/08/08 06:23:44;;;;;;;11.43;6.25;;;16.60;99.90;;;;;;6213146;23;20075;-79
2023/08/08 06:26:09;;;;;;;10.68;5.75;;;16.70;99.90;;;;;;6212934;23;19996;-79
2023/08/08 06:28:35;;;;;;;11.60;6.25;;;16.80;99.90;;;;;;6213216;23;20643;-79
2023/08/08 06:31:02;;;;;;;7.28;4.68;;;16.80;99.90;;;;;;6186525;23;20330;-79
2023/08/08 06:33:28;;;;;;;8.75;5.65;;;16.90;99.90;;;;;;6211995;23;20001;-79
2023/08/08 06:35:55;;;;;;;13.15;5.93;;;17.00;99.90;;;;;;6213015;23;20012;-79
2023/08/08 06:38:21;;;;;;;10.18;6.15;;;17.00;99.90;;;;;;6212632;23;20004;-78
2023/08/08 06:40:46;;;;;;;7.43;4.95;;;17.10;99.90;;;;;;6214148;23;20027;-79
2023/08/08 06:43:13;;;;;;;10.25;4.85;;;17.10;99.90;;;;;;6212782;23;20024;-78
2023/08/08 06:45:39;;;;;;;10.63;4.65;;;17.10;99.90;;;;;;6213325;23;20445;-79
2023/08/08 06:48:05;;;;;;;10.88;5.65;;;17.10;99.90;;;;;;6185657;23;20084;-79
2023/08/08 06:50:30;;;;;;;8.23;4.50;;;17.10;99.90;;;;;;6212920;23;20422;-79
2023/08/08 06:52:56;;;;;;;8.35;4.32;;;17.10;99.90;;;;;;6213125;23;20009;-79
2023/08/08 06:55:21;;;;;;;8.00;3.67;;;17.10;99.90;;;;;;6212095;23;20017;-78
2023/08/08 06:57:47;;;;;;;9.43;4.35;;;17.20;99.90;;;;;;6212827;23;20004;-79
2023/08/08 07:00:13;;;;;;;10.15;4.10;;;17.20;99.90;;;;;;6212582;23;20031;-78
2023/08/08 07:02:39;;;;;;;6.45;3.20;;;17.40;99.90;;;;;;6207480;23;20004;-78
2023/08/08 07:05:06;;;;;;;12.43;3.38;;;17.30;99.90;;;;;;6211000;23;20039;-79
2023/08/08 07:07:33;;;;;;;5.30;2.58;;;17.30;99.90;;;;;;6212708;23;20588;-78
2023/08/08 07:09:59;;;;;;;8.45;3.05;;;17.30;99.90;;;;;;6212098;23;20075;-79
2023/08/08 07:12:25;;;;;;;7.30;3.03;;;17.30;99.90;;;;;;6212074;23;20445;-79
2023/08/08 07:14:50;;;;;;;4.70;2.92;;;17.30;99.90;;;;;;6210672;23;20032;-79
2023/08/08 07:17:16;;;;;;;5.95;3.10;;;17.30;99.90;;;;;;6211979;23;20316;-78
2023/08/08 07:19:41;;;;;;;9.50;3.13;;;17.30;99.90;;;;;;6213333;23;20036;-78
2023/08/08 07:22:08;;;;;;;4.18;2.97;;;17.20;99.90;;;;;;6211428;23;19996;-79
2023/08/08 07:24:34;;;;;;;3.80;1.60;;;17.20;99.90;;;;;;6211567;23;20007;-79
2023/08/08 07:27:00;;;;;;;3.35;1.20;;;17.20;99.90;;;;;;6211078;23;19996;-79
2023/08/08 07:29:25;;;;;;;4.65;1.23;;;17.20;99.90;;;;;;6211748;23;20012;-78
2023/08/08 07:31:54;;;;;;;3.70;1.33;;;17.30;99.90;;;;;;6212115;23;20005;-78
2023/08/08 07:34:20;;;;;;;6.93;0.90;;;17.30;99.90;;;;;;6211959;23;20079;-79
2023/08/08 07:36:46;;;;;;;4.93;1.08;;;17.30;99.90;;;;;;6211267;23;20032;-78
2023/08/08 07:39:12;;;;;;;4.70;1.02;;;17.30;99.90;;;;;;6212209;23;20444;-78
2023/08/08 07:41:37;;;;;;;4.60;0.60;;;17.40;99.90;;;;;;6212328;23;20071;-78
2023/08/08 07:44:03;;;;;;;3.20;0.95;;;17.40;99.90;;;;;;6212197;23;20351;-78
2023/08/08 07:46:29;;;;;;;2.42;0.80;;;17.40;99.90;;;;;;6210902;23;20456;-79
2023/08/08 07:48:55;;;;;;;4.50;0.88;;;17.40;99.90;;;;;;6210475;23;20001;-78
2023/08/08 07:51:20;;;;;;;5.47;0.70;;;17.50;99.90;;;;;;6212012;23;20079;-79
2023/08/08 07:53:46;;;;;;;3.05;0.70;;;17.60;99.90;;;;;;6212615;23;20042;-78
2023/08/08 07:56:12;;;;;;;3.80;1.05;;;17.70;99.90;;;;;;6211498;23;20003;-79
2023/08/08 07:58:37;;;;;;;4.93;0.80;;;17.80;99.90;;;;;;6210226;23;20024;-79
2023/08/08 08:01:03;;;;;;;2.85;0.57;;;17.80;99.90;;;;;;6183198;23;20498;-78
2023/08/08 08:03:29;;;;;;;4.13;0.77;;;17.90;99.90;;;;;;6210782;23;20072;-79
2023/08/08 08:05:54;;;;;;;1.63;0.68;;;17.90;99.90;;;;;;6184588;23;20035;-80
2023/08/08 08:08:21;;;;;;;3.53;0.60;;;18.00;99.90;;;;;;6183964;23;20062;-80
2023/08/08 08:10:48;;;;;;;1.85;0.82;;;18.00;99.90;;;;;;6210911;23;20032;-82
2023/08/08 08:13:14;;;;;;;1.80;0.50;;;18.00;99.90;;;;;;6211381;23;20496;-79
2023/08/08 08:15:39;;;;;;;1.58;0.30;;;18.10;99.90;;;;;;6211208;23;20001;-81
2023/08/08 08:18:05;;;;;;;2.45;0.50;;;18.10;99.90;;;;;;6211334;23;20004;-80
2023/08/08 08:20:30;;;;;;;2.10;0.52;;;18.20;99.90;;;;;;6210241;23;20005;-79
2023/08/08 08:22:56;;;;;;;1.67;0.60;;;18.30;99.90;;;;;;6212028;23;20009;-78
2023/08/08 08:25:21;;;;;;;1.30;0.47;;;18.30;99.40;;;;;;6211775;23;20330;-79
2023/08/08 08:27:47;;;;;;;2.70;0.50;;;18.30;98.90;;;;;;6212332;23;20004;-79
2023/08/08 08:30:13;;;;;;;2.40;0.43;;;18.30;98.90;;;;;;6211060;23;20005;-78
2023/08/08 08:32:40;;;;;;;1.10;0.47;;;18.20;98.80;;;;;;6210636;23;20005;-78
2023/08/08 08:35:07;;;;;;;2.30;0.40;;;18.30;98.70;;;;;;6211693;23;20008;-78
2023/08/08 08:37:33;;;;;;;2.40;0.43;;;18.30;98.60;;;;;;6211902;23;20307;-78
2023/08/08 08:39:59;;;;;;;4.07;0.80;;;18.30;98.40;;;;;;6211979;23;20076;-79
2023/08/08 08:42:27;;;;;;;0.55;0.40;;;18.30;98.30;;;;;;6210049;23;20327;-76
2023/08/08 08:44:57;;;;;;;1.77;0.40;;;18.30;98.50;;;;;;6211687;23;20005;-78
2023/08/08 08:47:25;;;;;;;2.03;0.70;;;18.40;98.70;;;;;;6212397;23;20087;-77
2023/08/08 08:49:52;;;;;;;2.30;0.82;;;18.50;98.60;;;;;;6212234;23;20418;-77
2023/08/08 08:52:18;;;;;;;1.55;0.45;;;18.60;98.50;;;;;;6211133;23;20006;-77
2023/08/08 08:54:44;;;;;;;2.13;0.40;;;18.70;98.20;;;;;;6210618;23;20043;-77
2023/08/08 08:57:09;;;;;;;1.42;0.60;;;18.70;97.90;;;;;;6212534;23;20427;-77
2023/08/08 08:59:35;;;;;;;0.75;0.50;;;18.80;97.30;;;;;;6214065;23;20011;-76
2023/08/08 09:02:01;;;;;;;2.40;0.43;;;19.10;97.00;;;;;;6215271;23;20028;-77
2023/08/08 09:04:29;;;;;;;3.40;0.50;;;19.10;96.50;;;;;;6213580;23;20032;-77
2023/08/08 09:06:55;;;;;;;0.82;0.45;;;19.10;96.50;;;;;;6215034;23;20418;-77
2023/08/08 09:09:22;;;;;;;0.75;0.25;;;19.10;96.10;;;;;;6214783;23;20004;-77
2023/08/08 09:11:50;;;;;;;1.65;0.50;;;19.00;95.80;;;;;;6215276;23;20008;-77
2023/08/08 09:14:20;;;;;;;0.77;0.32;;;19.00;95.70;;;;;;6214104;23;20063;-77
2023/08/08 09:16:47;;;;;;;0.70;0.30;;;19.00;95.50;;;;;;6213711;23;20043;-76
2023/08/08 09:19:17;;;;;;;1.35;0.32;;;19.00;95.40;;;;;;6214748;23;20039;-77
2023/08/08 09:21:43;;;;;;;1.00;0.40;;;19.10;94.80;;;;;;6215445;23;20023;-77
2023/08/08 09:24:09;;;;;;;1.40;0.40;;;19.10;94.10;;;;;;6214736;23;20028;-78
2023/08/08 09:26:35;;;;;;;1.60;0.40;;;19.20;93.90;;;;;;6212987;23;20012;-77
2023/08/08 09:29:02;;;;;;;0.75;0.47;;;19.20;93.30;;;;;;6215201;23;20005;-77
2023/08/08 09:31:28;;;;;;;2.33;0.50;;;19.30;93.00;;;;;;6188316;23;20063;-77
2023/08/08 09:33:54;;;;;;;1.58;0.35;;;19.30;92.80;;;;;;6215314;23;20004;-77
2023/08/08 09:36:22;;;;;;;2.33;0.55;;;19.40;92.80;;;;;;6187062;23;20410;-77
2023/08/08 09:38:47;;;;;;;1.30;0.30;;;19.60;92.70;;;;;;6214403;23;20438;-77
2023/08/08 09:41:14;;;;;;;1.05;0.40;;;19.60;92.60;;;;;;6214072;23;19997;-77
2023/08/08 09:43:39;;;;;;;2.78;0.45;;;19.70;93.00;;;;;;6188524;23;20001;-77
2023/08/08 09:46:05;;;;;;;1.55;0.40;;;19.70;93.20;;;;;;6213737;23;20032;-77
2023/08/08 09:48:32;;;;;;;1.88;0.47;;;19.80;92.90;;;;;;6213332;23;20023;-77
2023/08/08 09:51:01;;;;;;;1.40;0.40;;;19.80;93.00;;;;;;6214453;23;20059;-77
2023/08/08 09:53:30;;;;;;;2.90;0.70;;;19.70;93.10;;;;;;6214384;23;20088;-77
2023/08/08 09:55:56;;;;;;;3.20;0.63;;;19.80;93.20;;;;;;6213366;23;20061;-77
2023/08/08 09:58:22;;;;;;;1.92;0.30;;;19.80;93.00;;;;;;6213263;23;20004;-77
2023/08/08 10:00:51;;;;;;;2.00;0.30;;;19.90;92.80;;;;;;6213890;23;20028;-77
2023/08/08 10:03:18;;;;;;;3.25;0.50;;;19.90;92.30;;;;;;6214008;23;19997;-76
2023/08/08 10:05:45;;;;;;;2.30;0.47;;;19.90;92.50;;;;;;6214122;23;19997;-77
2023/08/08 10:08:15;;;;;;;2.38;0.47;;;19.90;92.10;;;;;;6214113;23;19997;-77
2023/08/08 10:10:41;;;;;;;1.20;0.43;;;20.10;91.80;;;;;;6184044;23;20075;-76
2023/08/08 10:13:07;;;;;;;1.30;0.50;;;20.10;91.80;;;;;;6212936;23;20004;-77
2023/08/08 10:15:38;;;;;;;1.98;0.35;;;20.10;91.80;;;;;;6212788;23;20001;-76
2023/08/08 10:18:04;;;;;;;0.70;0.45;;;20.20;91.90;;;;;;6212987;23;20001;-76
2023/08/08 10:20:33;;;;;;;1.15;0.40;;;20.20;92.20;;;;;;6212178;23;20001;-75
2023/08/08 10:23:00;;;;;;;1.95;0.60;;;20.20;92.20;;;;;;6212532;23;20001;-75
2023/08/08 10:25:27;;;;;;;3.60;0.50;;;20.20;92.20;;;;;;6212502;23;20004;-75
2023/08/08 10:28:04;;;;;;;1.85;0.40;;;20.30;91.60;;;;;;6213351;23;20036;-76
2023/08/08 10:30:30;;;;;;;1.98;0.38;;;20.30;91.60;;;;;;6213029;23;20059;-75
2023/08/08 10:32:57;;;;;;;2.28;0.40;;;20.30;91.60;;;;;;6211366;23;20012;-75
2023/08/08 10:35:28;;;;;;;1.27;0.30;;;20.30;92.00;;;;;;6186212;23;20427;-76
2023/08/08 10:37:54;;;;;;;1.48;0.45;;;20.30;92.00;;;;;;6213100;23;20050;-75
2023/08/08 10:40:20;;;;;;;1.23;0.45;;;20.40;92.20;;;;;;6185207;23;20086;-76
2023/08/08 10:42:47;;;;;;;0.60;0.30;;;20.30;91.70;;;;;;6184531;23;20373;-75
2023/08/08 10:45:14;;;;;;;0.93;0.30;;;20.30;91.50;;;;;;6212330;23;20445;-76
2023/08/08 10:47:42;;;;;;;1.92;0.50;;;20.20;91.50;;;;;;6212634;23;19996;-76
2023/08/08 10:50:11;;;;;;;1.10;0.50;;;20.20;91.70;;;;;;6185932;23;20000;-75
2023/08/08 10:52:49;;;;;;;1.75;0.60;;;20.10;91.90;;;;;;6211685;23;20058;-77
2023/08/08 10:55:34;;;;;;;1.65;0.50;;;20.20;91.70;;;;;;6210350;23;20013;-77
2023/08/08 10:58:09;;;;;;;1.02;0.43;;;20.20;91.40;;;;;;6212551;23;20004;-79
2023/08/08 11:00:39;;;;;;;2.00;0.38;;;20.20;91.30;;;;;;6212218;23;20099;-78
2023/08/08 11:03:08;;;;;;;1.65;0.60;;;20.30;90.90;;;;;;6186427;23;20052;-78
2023/08/08 11:05:35;;;;;;;1.40;0.40;;;20.40;91.10;;;;;;6211016;23;20010;-78
2023/08/08 11:08:02;;;;;;;1.33;0.50;;;20.60;91.30;;;;;;6211831;23;20450;-77
2023/08/08 11:10:31;;;;;;;0.93;0.85;;;20.70;90.80;;;;;;6213008;23;20001;-77
2023/08/08 11:13:02;;;;;;;2.95;0.60;;;20.80;90.50;;;;;;6212457;23;20012;-77
2023/08/08 11:15:28;;;;;;;1.40;0.40;;;20.80;90.30;;;;;;6211616;23;20318;-77
2023/08/08 11:17:58;;;;;;;2.28;0.40;;;20.80;90.40;;;;;;6212327;23;19997;-77
2023/08/08 11:20:24;;;;;;;1.27;0.50;;;20.90;90.20;;;;;;6211850;23;20083;-77
2023/08/08 11:22:52;;;;;;;2.38;0.50;;;21.10;90.20;;;;;;6211785;23;20039;-76
2023/08/08 11:25:17;;;;;;;1.08;0.40;;;21.10;90.00;;;;;;6211227;23;20051;-76
2023/08/08 11:27:52;;;;;;;1.02;0.47;;;21.20;89.70;;;;;;6183754;23;20005;-74
2023/08/08 11:30:18;;;;;;;1.05;0.90;;;21.30;89.50;;;;;;6184006;23;20084;-73
2023/08/08 11:32:43;;;;;;;2.50;0.43;;;21.40;88.70;;;;;;6210405;23;20032;-75
2023/08/08 11:35:09;;;;;;;1.73;0.43;;;21.40;88.80;;;;;;6210949;23;20442;-74
2023/08/08 11:37:36;;;;;;;3.33;0.52;;;21.30;87.60;;;;;;6183681;23;20008;-74
2023/08/08 11:40:01;;;;;;;2.65;0.60;;;21.10;87.60;;;;;;6212084;23;20415;-75
2023/08/08 11:42:27;;;;;;;3.25;0.60;;;21.00;88.30;;;;;;6185888;23;20007;-75
2023/08/08 11:44:53;;;;;;;1.38;0.70;;;20.90;88.90;;;;;;6212688;23;20001;-75
2023/08/08 11:47:25;;;;;;;1.15;0.60;;;21.00;89.10;;;;;;6211892;23;20000;-73
2023/08/08 11:49:52;;;;;;;2.83;0.77;;;21.00;89.00;;;;;;6183500;23;20005;-73
2023/08/08 11:52:19;;;;;;;1.23;0.50;;;21.10;89.10;;;;;;6183565;23;20000;-74
2023/08/08 11:54:50;;;;;;;1.25;0.55;;;21.10;88.40;;;;;;6205251;23;20024;-74
2023/08/08 11:57:16;;;;;;;2.25;0.40;;;21.10;88.00;;;;;;6211794;23;20009;-74
2023/08/08 11:59:41;;;;;;;1.13;0.63;;;21.10;88.30;;;;;;6210761;23;20080;-74
2023/08/08 12:02:07;;;;;;;1.55;0.70;;;21.20;88.10;;;;;;6211368;23;20047;-74
2023/08/08 12:04:33;;;;;;;2.55;1.17;;;21.20;87.20;;;;;;6210321;23;20307;-74
2023/08/08 12:07:06;;;;;;;0.93;0.68;;;21.30;87.40;;;;;;6211471;23;20602;-77
2023/08/08 12:09:32;;;;;;;2.78;0.98;;;21.30;87.30;;;;;;6210787;23;20012;-76
2023/08/08 12:12:02;;;;;;;2.92;0.65;;;21.40;87.30;;;;;;6210682;23;20071;-75
2023/08/08 12:14:28;;;;;;;2.10;0.60;;;21.50;86.90;;;;;;6209377;23;20444;-75
2023/08/08 12:16:55;;;;;;;1.95;0.60;;;21.50;86.40;;;;;;6210394;23;20330;-76
2023/08/08 12:19:24;;;;;;;1.10;0.52;;;21.60;86.60;;;;;;6211520;23;20000;-76
2023/08/08 12:21:51;;;;;;;0.93;0.60;;;21.50;87.10;;;;;;6208059;23;20009;-76
2023/08/08 12:24:17;;;;;;;2.20;0.77;;;21.40;87.60;;;;;;6211042;23;20334;-75
2023/08/08 12:26:43;;;;;;;2.97;1.02;;;21.40;87.70;;;;;;6211404;23;20012;-77
2023/08/08 12:29:08;;;;;;;1.70;0.52;;;21.40;87.80;;;;;;6210714;23;20004;-76
2023/08/08 12:31:34;;;;;;;0.80;0.60;;;21.30;87.70;;;;;;6211313;23;20008;-76
2023/08/08 12:34:00;;;;;;;1.55;0.80;;;21.30;87.10;;;;;;6210004;23;20003;-76
2023/08/08 12:36:26;;;;;;;2.53;0.60;;;21.20;87.00;;;;;;6209390;23;20004;-76
2023/08/08 12:38:51;;;;;;;2.13;0.70;;;21.20;87.20;;;;;;6211351;23;20068;-75
2023/08/08 12:41:17;;;;;;;2.50;0.50;;;21.10;87.70;;;;;;6209494;23;20004;-76